Terminal Aerodrome Forecast
Issued by NWS

Home | Current Version | Previous Version | Text Only | Print | Product List | Glossary On
Versions: 1 2 3 4 5 6 7 8 9 10 11 12 13 14 15 16 17 18 19 20 21 22 23 24 25
000
FTUS45 KREV 281700
TAFTRK
TAF
KTRK 281720Z 2818/2918 VRB04KT P6SM FEW001 FEW200
     FM290100 VRB03KT P6SM SCT200
     FM290900 00000KT 1/2SM FZFG VV002
     FM291600 VRB03KT P6SM FEW060 SCT200=

USA.gov is the U.S. government's official web portal to all federal, state and local government web resources and services.